createdAt,value
2023-06-27T00:01:00.182Z,5.69
2023-06-27T00:03:26.863Z,5.66
2023-06-27T00:05:53.638Z,5.66
2023-06-27T00:08:20.283Z,5.15
2023-06-27T00:10:46.877Z,5.72
2023-06-27T00:13:13.440Z,5.85
2023-06-27T00:15:40.254Z,5.64
2023-06-27T00:18:07.012Z,5.50
2023-06-27T00:20:33.576Z,5.54
2023-06-27T00:23:00.204Z,5.53
2023-06-27T00:25:26.796Z,5.66
2023-06-27T00:27:53.373Z,5.47
2023-06-27T00:30:19.973Z,5.25
2023-06-27T00:32:46.589Z,5.51
2023-06-27T00:35:13.182Z,5.35
2023-06-27T00:37:39.781Z,5.49
2023-06-27T00:40:06.366Z,5.32
2023-06-27T00:42:32.931Z,5.21
2023-06-27T00:44:59.514Z,5.43
2023-06-27T00:47:26.117Z,5.36
2023-06-27T00:49:52.775Z,5.16
2023-06-27T00:52:19.419Z,5.17
2023-06-27T00:54:45.986Z,5.12
2023-06-27T00:57:12.672Z,5.05
2023-06-27T00:59:39.272Z,4.91
2023-06-27T01:02:05.899Z,4.93
2023-06-27T01:04:32.493Z,5.01
2023-06-27T01:06:59.115Z,4.99
2023-06-27T01:09:25.725Z,5.37
2023-06-27T01:11:52.309Z,5.01
2023-06-27T01:14:18.904Z,4.83
2023-06-27T01:16:45.481Z,5.13
2023-06-27T01:19:12.080Z,5.03
2023-06-27T01:21:38.665Z,4.74
2023-06-27T01:24:05.232Z,5.24
2023-06-27T01:26:31.825Z,4.90
2023-06-27T01:28:58.404Z,4.95
2023-06-27T01:31:25.041Z,4.89
2023-06-27T01:33:51.661Z,4.97
2023-06-27T01:36:18.259Z,4.85
2023-06-27T01:38:44.931Z,4.73
2023-06-27T01:41:11.521Z,4.74
2023-06-27T01:43:38.093Z,4.61
2023-06-27T01:46:04.740Z,4.46
2023-06-27T01:48:31.380Z,4.51
2023-06-27T01:50:57.977Z,4.60
2023-06-27T01:53:24.599Z,4.53
2023-06-27T01:55:51.213Z,4.60
2023-06-27T01:58:17.826Z,4.50
2023-06-27T02:00:44.503Z,4.64
2023-06-27T02:03:12.840Z,4.41
2023-06-27T02:05:39.790Z,4.49
2023-06-27T02:08:06.654Z,4.22
2023-06-27T02:10:33.254Z,4.58
2023-06-27T02:12:59.841Z,4.44
2023-06-27T02:15:26.441Z,4.39
2023-06-27T02:17:53.059Z,4.42
2023-06-27T02:20:19.659Z,4.42
2023-06-27T02:22:46.251Z,3.97
2023-06-27T02:25:12.827Z,4.22
2023-06-27T02:27:39.432Z,4.29
2023-06-27T02:30:06.049Z,4.34
2023-06-27T02:32:32.704Z,4.17
2023-06-27T02:34:59.311Z,4.23
2023-06-27T02:37:25.925Z,4.31
2023-06-27T02:39:52.562Z,4.33
2023-06-27T02:42:19.147Z,4.15
2023-06-27T02:44:45.752Z,3.88
2023-06-27T02:47:12.334Z,4.31
2023-06-27T02:49:38.908Z,4.05
2023-06-27T02:52:05.535Z,4.06
2023-06-27T02:54:32.178Z,3.87
2023-06-27T02:56:58.785Z,3.85
2023-06-27T02:59:25.372Z,3.93
2023-06-27T03:01:51.994Z,3.99
2023-06-27T03:04:19.936Z,4.09
2023-06-27T03:06:46.792Z,3.89
2023-06-27T03:09:13.428Z,4.00
2023-06-27T03:11:40.046Z,3.87
2023-06-27T03:14:06.635Z,4.07
2023-06-27T03:16:33.223Z,3.75
2023-06-27T03:18:59.840Z,3.78
2023-06-27T03:21:26.436Z,3.68
2023-06-27T03:23:53.031Z,3.88
2023-06-27T03:26:19.630Z,3.78
2023-06-27T03:28:46.221Z,3.92
2023-06-27T03:31:12.798Z,3.68
2023-06-27T03:33:39.399Z,3.78
2023-06-27T03:36:05.988Z,3.63
2023-06-27T03:38:32.591Z,3.56
2023-06-27T03:40:59.205Z,3.82
2023-06-27T03:43:25.801Z,3.47
2023-06-27T03:45:52.420Z,3.56
2023-06-27T03:48:19.007Z,3.43
2023-06-27T03:50:45.590Z,3.34
2023-06-27T03:53:12.187Z,3.36
2023-06-27T03:55:39.257Z,3.55
2023-06-27T03:58:06.124Z,3.30
2023-06-27T04:00:32.730Z,3.05
2023-06-27T04:02:59.362Z,3.44
2023-06-27T04:05:25.962Z,3.30
2023-06-27T04:07:52.563Z,3.33
2023-06-27T04:10:19.157Z,3.36
2023-06-27T04:12:45.762Z,3.50
2023-06-27T04:15:12.334Z,3.35
2023-06-27T04:17:39.067Z,3.34
2023-06-27T04:20:05.869Z,3.28
2023-06-27T04:22:32.437Z,3.40
2023-06-27T04:24:59.029Z,3.30
2023-06-27T04:27:25.603Z,3.49
2023-06-27T04:29:52.182Z,3.26
2023-06-27T04:32:18.803Z,3.22
2023-06-27T04:34:45.427Z,3.35
2023-06-27T04:37:12.030Z,3.23
2023-06-27T04:39:38.694Z,3.34
2023-06-27T04:42:05.256Z,3.14
2023-06-27T04:44:31.844Z,3.31
2023-06-27T04:46:58.448Z,3.21
2023-06-27T04:49:25.065Z,3.18
2023-06-27T04:51:51.675Z,3.26
2023-06-27T04:54:18.281Z,3.20
2023-06-27T04:56:44.871Z,3.12
2023-06-27T04:59:11.476Z,3.21
2023-06-27T05:01:38.057Z,3.05
2023-06-27T05:04:04.673Z,3.11
2023-06-27T05:06:31.283Z,3.03
2023-06-27T05:08:57.871Z,2.96
2023-06-27T05:11:24.469Z,2.94
2023-06-27T05:13:51.040Z,2.82
2023-06-27T05:16:17.634Z,3.10
2023-06-27T05:18:44.306Z,2.89
2023-06-27T05:21:10.912Z,3.10
2023-06-27T05:23:37.490Z,2.90
2023-06-27T05:26:04.092Z,3.06
2023-06-27T05:28:30.667Z,3.11
2023-06-27T05:30:57.310Z,3.20
2023-06-27T05:33:23.959Z,3.12
2023-06-27T05:35:50.571Z,2.98
2023-06-27T05:38:17.173Z,3.18
2023-06-27T05:40:43.766Z,2.98
2023-06-27T05:43:10.356Z,3.16
2023-06-27T05:45:37.163Z,3.06
2023-06-27T05:48:04.289Z,2.95
2023-06-27T05:50:30.983Z,3.16
2023-06-27T05:52:57.563Z,3.13
2023-06-27T05:55:24.159Z,2.96
2023-06-27T05:57:50.734Z,3.05
2023-06-27T06:00:17.320Z,3.33
2023-06-27T06:02:44.077Z,2.96
2023-06-27T06:05:10.803Z,3.15
2023-06-27T06:07:37.393Z,2.79
2023-06-27T06:10:03.985Z,3.23
2023-06-27T06:12:30.594Z,3.04
2023-06-27T06:14:57.207Z,3.01
2023-06-27T06:17:23.840Z,2.88
2023-06-27T06:19:50.445Z,2.91
2023-06-27T06:22:17.076Z,2.93
2023-06-27T06:24:43.700Z,3.01
2023-06-27T06:27:10.305Z,2.84
2023-06-27T06:29:36.898Z,2.80
2023-06-27T06:32:03.511Z,2.94
2023-06-27T06:34:30.144Z,2.78
2023-06-27T06:36:56.765Z,3.00
2023-06-27T06:39:23.356Z,2.86
2023-06-27T06:41:49.960Z,2.86
2023-06-27T06:44:16.537Z,2.67
2023-06-27T06:46:43.219Z,2.92
2023-06-27T06:49:09.918Z,2.94
2023-06-27T06:51:36.498Z,2.83
2023-06-27T06:54:03.083Z,2.68
2023-06-27T06:56:29.673Z,2.80
2023-06-27T06:58:56.264Z,2.70
2023-06-27T07:01:22.891Z,2.57
2023-06-27T07:03:49.521Z,2.61
2023-06-27T07:06:16.114Z,2.90
2023-06-27T07:08:42.700Z,2.59
2023-06-27T07:11:09.325Z,2.64
2023-06-27T07:13:35.911Z,2.83
2023-06-27T07:16:02.533Z,2.76
2023-06-27T07:18:29.138Z,2.79
2023-06-27T07:20:55.726Z,2.72
2023-06-27T07:23:22.555Z,2.74
2023-06-27T07:25:49.152Z,2.68
2023-06-27T07:28:15.793Z,2.63
2023-06-27T07:30:42.525Z,2.55
2023-06-27T07:33:09.563Z,2.64
2023-06-27T07:35:36.207Z,2.73
2023-06-27T07:38:02.785Z,2.83
2023-06-27T07:40:29.388Z,2.62
2023-06-27T07:42:55.981Z,2.68
2023-06-27T07:45:22.588Z,2.59
2023-06-27T07:47:49.223Z,2.82
2023-06-27T07:50:15.892Z,2.46
2023-06-27T07:52:42.473Z,2.59
2023-06-27T07:55:09.074Z,2.82
2023-06-27T07:57:35.654Z,2.82
2023-06-27T08:00:02.328Z,2.79
2023-06-27T08:02:29.010Z,3.17
2023-06-27T08:04:55.628Z,2.86
2023-06-27T08:07:22.324Z,3.11
2023-06-27T08:09:48.975Z,2.92
2023-06-27T08:12:15.639Z,3.12
2023-06-27T08:14:42.279Z,3.06
2023-06-27T08:17:08.953Z,3.15
2023-06-27T08:19:35.606Z,3.31
2023-06-27T08:22:02.216Z,3.22
2023-06-27T08:24:28.806Z,3.39
2023-06-27T08:26:55.470Z,3.66
2023-06-27T08:29:22.066Z,3.62
2023-06-27T08:31:48.704Z,3.68
2023-06-27T08:34:15.320Z,3.73
2023-06-27T08:36:41.892Z,3.55
2023-06-27T08:39:08.472Z,3.92
2023-06-27T08:41:35.093Z,4.04
2023-06-27T08:44:01.690Z,4.32
2023-06-27T08:46:28.291Z,4.74
2023-06-27T08:48:54.859Z,4.75
2023-06-27T08:51:21.456Z,5.52
2023-06-27T08:53:48.133Z,6.39
2023-06-27T08:56:14.730Z,6.47
2023-06-27T08:58:41.322Z,7.53
2023-06-27T09:01:07.948Z,7.90
2023-06-27T09:03:34.607Z,8.09
2023-06-27T09:06:01.256Z,8.80
2023-06-27T09:08:27.960Z,8.78
2023-06-27T09:10:54.559Z,9.52
2023-06-27T09:13:21.175Z,10.02
2023-06-27T09:15:47.770Z,10.02
2023-06-27T09:18:14.422Z,10.39
2023-06-27T09:20:41.263Z,10.95
2023-06-27T09:23:07.981Z,10.80
2023-06-27T09:25:34.606Z,12.44
2023-06-27T09:28:01.229Z,12.62
2023-06-27T09:30:27.830Z,12.51
2023-06-27T09:32:54.489Z,12.24
2023-06-27T09:35:40.268Z,11.99
2023-06-27T09:40:37.200Z,13.47
2023-06-27T09:43:03.802Z,13.41
2023-06-27T09:45:30.465Z,13.98
2023-06-27T09:47:57.106Z,13.51
2023-06-27T09:50:23.801Z,13.81
2023-06-27T09:52:50.409Z,14.38
2023-06-27T09:55:17.008Z,15.02
2023-06-27T09:57:43.603Z,14.68
2023-06-27T10:00:10.222Z,15.32
2023-06-27T10:02:36.851Z,15.44
2023-06-27T10:05:03.553Z,15.76
2023-06-27T10:07:30.222Z,16.29
2023-06-27T10:09:57.672Z,16.29
2023-06-27T10:12:24.273Z,17.31
2023-06-27T10:14:50.904Z,17.26
2023-06-27T10:17:17.523Z,19.01
2023-06-27T10:19:44.138Z,20.15
2023-06-27T10:22:10.764Z,20.72
2023-06-27T10:24:38.553Z,21.28
2023-06-27T10:27:06.902Z,22.37
2023-06-27T10:29:33.498Z,23.14
2023-06-27T10:32:00.112Z,23.16
2023-06-27T10:34:26.721Z,22.85
2023-06-27T10:36:53.320Z,23.63
2023-06-27T10:39:19.929Z,23.95
2023-06-27T10:41:46.533Z,24.21
2023-06-27T10:44:13.119Z,25.87
2023-06-27T10:46:39.716Z,25.76
2023-06-27T10:49:06.326Z,26.37
2023-06-27T10:51:32.917Z,26.03
2023-06-27T10:53:59.567Z,26.00
2023-06-27T10:56:26.189Z,26.17
2023-06-27T10:58:52.784Z,26.79
2023-06-27T11:01:19.451Z,27.33
2023-06-27T11:03:46.178Z,27.14
2023-06-27T11:06:12.907Z,27.41
2023-06-27T11:08:39.522Z,27.31
2023-06-27T11:11:06.145Z,28.03
2023-06-27T11:13:32.761Z,28.74
2023-06-27T11:15:59.465Z,28.52
2023-06-27T11:18:26.118Z,28.50
2023-06-27T11:20:52.715Z,29.27
2023-06-27T11:23:19.328Z,29.15
2023-06-27T11:25:45.947Z,29.40
2023-06-27T11:28:12.543Z,29.48
2023-06-27T11:30:39.388Z,28.71
2023-06-27T11:33:06.420Z,29.02
2023-06-27T11:35:33.112Z,29.19
2023-06-27T11:38:00.012Z,29.77
2023-06-27T11:40:26.779Z,29.49
2023-06-27T11:42:53.387Z,28.45
2023-06-27T11:45:20.002Z,28.32
2023-06-27T11:47:46.653Z,28.52
2023-06-27T11:50:13.280Z,27.99
2023-06-27T11:52:39.867Z,28.12
2023-06-27T11:55:06.470Z,28.10
2023-06-27T11:57:33.089Z,27.77
2023-06-27T11:59:59.741Z,27.00
2023-06-27T12:02:26.463Z,26.91
2023-06-27T12:04:53.109Z,26.87
2023-06-27T12:07:19.733Z,26.44
2023-06-27T12:09:46.408Z,26.53
2023-06-27T12:12:13.016Z,25.73
2023-06-27T12:14:39.641Z,26.11
2023-06-27T12:17:06.281Z,25.71
2023-06-27T12:19:32.894Z,26.24
2023-06-27T12:21:59.490Z,25.27
2023-06-27T12:24:26.090Z,24.97
2023-06-27T12:26:52.730Z,25.03
2023-06-27T12:29:20.330Z,24.47
2023-06-27T12:31:47.169Z,24.56
2023-06-27T12:34:13.771Z,24.43
2023-06-27T12:36:40.348Z,24.29
2023-06-27T12:39:06.951Z,23.60
2023-06-27T12:41:33.561Z,23.16
2023-06-27T12:44:00.217Z,23.67
2023-06-27T12:46:26.880Z,23.66
2023-06-27T12:48:53.510Z,22.72
2023-06-27T12:51:21.369Z,22.76
2023-06-27T12:53:48.096Z,22.75
2023-06-27T12:56:14.745Z,22.41
2023-06-27T12:58:41.342Z,22.11
2023-06-27T13:01:07.955Z,22.31
2023-06-27T13:03:34.726Z,22.33
2023-06-27T13:06:01.412Z,22.48
2023-06-27T13:08:28.017Z,22.26
2023-06-27T13:10:54.637Z,22.28
2023-06-27T13:13:21.241Z,21.77
2023-06-27T13:16:03.930Z,20.88
2023-06-27T13:18:34.684Z,21.21
2023-06-27T13:21:01.292Z,21.05
2023-06-27T13:23:27.887Z,20.85
2023-06-27T13:25:54.498Z,20.63
2023-06-27T13:28:21.118Z,20.92
2023-06-27T13:30:47.802Z,20.73
2023-06-27T13:33:14.496Z,20.63
2023-06-27T13:35:41.144Z,20.93
2023-06-27T13:38:07.780Z,20.11
2023-06-27T13:40:34.410Z,19.86
2023-06-27T13:43:01.113Z,19.55
2023-06-27T13:45:27.701Z,19.80
2023-06-27T13:47:54.357Z,19.01
2023-06-27T13:50:21.047Z,19.42
2023-06-27T13:52:47.669Z,19.44
2023-06-27T13:55:14.277Z,19.80
2023-06-27T13:57:40.921Z,18.78
2023-06-27T14:00:07.633Z,18.81
2023-06-27T14:02:34.354Z,18.73
2023-06-27T14:05:01.054Z,16.82
2023-06-27T14:07:27.696Z,17.07
2023-06-27T14:09:54.353Z,17.55
2023-06-27T14:12:20.984Z,18.17
2023-06-27T14:14:47.608Z,17.48
2023-06-27T14:17:14.217Z,17.68
2023-06-27T14:19:40.808Z,17.98
2023-06-27T14:22:07.410Z,18.01
2023-06-27T14:24:34.044Z,17.83
2023-06-27T14:27:00.653Z,17.51
2023-06-27T14:29:27.244Z,17.11
2023-06-27T14:31:53.840Z,16.72
2023-06-27T14:34:20.453Z,16.90
2023-06-27T14:36:47.061Z,16.58
2023-06-27T14:39:14.574Z,16.52
2023-06-27T14:41:41.417Z,16.88
2023-06-27T14:44:08.036Z,16.75
2023-06-27T14:46:34.638Z,16.43
2023-06-27T14:49:01.243Z,16.26
2023-06-27T14:51:27.864Z,16.10
2023-06-27T14:53:54.524Z,16.44
2023-06-27T14:56:21.136Z,17.02
2023-06-27T14:58:47.721Z,15.99
2023-06-27T15:01:14.505Z,15.67
2023-06-27T15:03:41.381Z,15.48
2023-06-27T15:06:08.100Z,16.13
2023-06-27T15:08:34.691Z,15.52
2023-06-27T15:11:01.321Z,14.91
2023-06-27T15:13:27.897Z,15.39
2023-06-27T15:15:54.483Z,14.61
2023-06-27T15:18:21.151Z,14.66
2023-06-27T15:20:47.782Z,14.37
2023-06-27T15:23:22.311Z,14.82
2023-06-27T15:25:56.186Z,14.38
2023-06-27T15:28:22.776Z,14.13
2023-06-27T15:30:49.399Z,14.52
2023-06-27T15:33:16.026Z,14.11
2023-06-27T15:35:42.945Z,13.98
2023-06-27T15:38:09.817Z,14.05
2023-06-27T15:40:36.396Z,13.82
2023-06-27T15:43:03.205Z,14.06
2023-06-27T15:45:29.863Z,13.95
2023-06-27T15:47:56.489Z,13.85
2023-06-27T15:50:23.128Z,13.29
2023-06-27T15:52:49.719Z,12.94
2023-06-27T15:55:16.314Z,12.66
2023-06-27T15:57:42.886Z,12.92
2023-06-27T16:00:09.476Z,12.57
2023-06-27T16:02:36.138Z,12.47
2023-06-27T16:05:02.907Z,12.97
2023-06-27T16:07:29.711Z,12.42
2023-06-27T16:09:56.422Z,12.72
2023-06-27T16:12:23.020Z,12.37
2023-06-27T16:14:49.616Z,12.38
2023-06-27T16:17:16.210Z,12.73
2023-06-27T16:19:42.845Z,12.18
2023-06-27T16:22:09.440Z,12.34
2023-06-27T16:24:36.018Z,12.42
2023-06-27T16:27:02.623Z,12.05
2023-06-27T16:29:29.202Z,11.94
2023-06-27T16:31:55.991Z,11.17
2023-06-27T16:34:22.658Z,11.85
2023-06-27T16:36:49.282Z,10.98
2023-06-27T16:39:15.857Z,11.11
2023-06-27T16:41:42.437Z,11.30
2023-06-27T16:44:11.232Z,11.18
2023-06-27T16:46:38.151Z,11.19
2023-06-27T16:49:04.768Z,11.52
2023-06-27T16:51:31.382Z,11.30
2023-06-27T16:53:57.961Z,11.11
2023-06-27T16:56:24.535Z,11.17
2023-06-27T16:58:51.117Z,11.28
2023-06-27T17:01:17.709Z,10.97
2023-06-27T17:03:44.342Z,10.72
2023-06-27T17:06:11.029Z,11.40
2023-06-27T17:08:37.615Z,10.93
2023-06-27T17:11:04.247Z,10.75
2023-06-27T17:13:30.849Z,11.02
2023-06-27T17:15:57.429Z,10.75
2023-06-27T17:18:24.066Z,10.69
2023-06-27T17:20:50.688Z,10.70
2023-06-27T17:23:17.321Z,10.62
2023-06-27T17:25:44.123Z,10.75
2023-06-27T17:28:10.823Z,10.71
2023-06-27T17:30:37.442Z,10.67
2023-06-27T17:33:04.108Z,10.69
2023-06-27T17:35:30.722Z,10.39
2023-06-27T17:37:57.318Z,10.31
2023-06-27T17:40:23.889Z,10.42
2023-06-27T17:42:50.496Z,10.49
2023-06-27T17:45:17.087Z,10.00
2023-06-27T17:47:43.712Z,10.19
2023-06-27T17:50:10.386Z,10.34
2023-06-27T17:52:37.026Z,10.25
2023-06-27T17:55:03.634Z,10.19
2023-06-27T17:57:30.223Z,9.49
2023-06-27T17:59:56.823Z,9.89
2023-06-27T18:02:23.498Z,9.34
2023-06-27T18:04:50.113Z,9.81
2023-06-27T18:07:32.549Z,9.79
2023-06-27T18:10:03.248Z,9.51
2023-06-27T18:12:29.838Z,9.91
2023-06-27T18:14:56.422Z,9.97
2023-06-27T18:17:23.029Z,9.36
2023-06-27T18:19:49.660Z,9.27
2023-06-27T18:22:16.240Z,9.29
2023-06-27T18:24:42.844Z,9.08
2023-06-27T18:27:09.431Z,8.97
2023-06-27T18:29:36.035Z,9.02
2023-06-27T18:32:02.649Z,8.56
2023-06-27T18:34:29.365Z,8.68
2023-06-27T18:36:55.947Z,8.77
2023-06-27T18:39:22.540Z,5.93
2023-06-27T18:41:49.158Z,7.20
2023-06-27T18:44:15.767Z,4.09
2023-06-27T18:46:42.344Z,3.00
2023-06-27T18:49:08.944Z,2.75
2023-06-27T18:51:35.532Z,2.24
2023-06-27T18:54:02.142Z,2.73
2023-06-27T18:56:28.727Z,2.27
2023-06-27T18:58:55.333Z,2.20
2023-06-27T19:01:21.993Z,1.83
2023-06-27T19:03:48.641Z,2.01
2023-06-27T19:06:15.333Z,2.14
2023-06-27T19:08:42.026Z,2.16
2023-06-27T19:11:08.600Z,2.17
2023-06-27T19:13:35.232Z,2.01
2023-06-27T19:16:01.823Z,2.15
2023-06-27T19:18:28.909Z,2.10
2023-06-27T19:20:55.954Z,2.09
2023-06-27T19:23:23.034Z,2.03
2023-06-27T19:25:49.616Z,2.06
2023-06-27T19:28:16.234Z,2.02
2023-06-27T19:30:43.177Z,2.37
2023-06-27T19:33:09.968Z,2.04
2023-06-27T19:35:36.563Z,1.70
2023-06-27T19:38:03.154Z,2.03
2023-06-27T19:40:29.759Z,2.19
2023-06-27T19:42:56.369Z,2.12
2023-06-27T19:45:22.983Z,1.90
2023-06-27T19:47:49.627Z,2.00
2023-06-27T19:50:16.254Z,1.93
2023-06-27T19:52:42.823Z,2.00
2023-06-27T19:55:09.426Z,1.95
2023-06-27T19:57:36.008Z,2.18
2023-06-27T20:00:02.593Z,2.00
2023-06-27T20:02:29.251Z,2.04
2023-06-27T20:04:55.868Z,2.06
2023-06-27T20:07:22.533Z,1.97
2023-06-27T20:09:49.153Z,1.92
2023-06-27T20:12:15.763Z,2.12
2023-06-27T20:14:42.356Z,1.98
2023-06-27T20:17:11.694Z,1.84
2023-06-27T20:19:38.281Z,1.80
2023-06-27T20:22:04.865Z,1.94
2023-06-27T20:24:31.464Z,1.84
2023-06-27T20:26:58.070Z,1.86
2023-06-27T20:29:24.635Z,2.02
2023-06-27T20:31:51.257Z,1.83
2023-06-27T20:34:17.858Z,1.83
2023-06-27T20:36:44.449Z,1.90
2023-06-27T20:39:11.063Z,1.89
2023-06-27T20:41:37.691Z,1.96
2023-06-27T20:44:04.279Z,2.05
2023-06-27T20:46:30.876Z,1.92
2023-06-27T20:48:57.480Z,1.97
2023-06-27T20:51:24.063Z,1.96
2023-06-27T20:53:50.670Z,1.92
2023-06-27T20:56:17.236Z,1.75
2023-06-27T20:58:43.828Z,1.88
2023-06-27T21:01:10.431Z,1.92
2023-06-27T21:03:37.161Z,1.86
2023-06-27T21:06:03.804Z,2.07
2023-06-27T21:08:30.402Z,1.79
2023-06-27T21:10:57.031Z,1.86
2023-06-27T21:13:23.620Z,1.84
2023-06-27T21:15:50.216Z,1.98
2023-06-27T21:18:16.805Z,2.11
2023-06-27T21:20:43.661Z,2.72
2023-06-27T21:23:10.481Z,2.34
2023-06-27T21:25:37.172Z,2.55
2023-06-27T21:28:03.769Z,2.33
2023-06-27T21:30:30.414Z,2.18
2023-06-27T21:32:57.070Z,2.13
2023-06-27T21:35:23.696Z,2.17
2023-06-27T21:37:50.285Z,2.15
2023-06-27T21:40:16.889Z,2.14
2023-06-27T21:42:43.502Z,2.03
2023-06-27T21:45:10.094Z,2.21
2023-06-27T21:47:36.755Z,2.37
2023-06-27T21:50:03.363Z,2.44
2023-06-27T21:52:29.940Z,2.15
2023-06-27T21:54:56.544Z,2.27
2023-06-27T21:57:23.137Z,2.40
2023-06-27T21:59:49.722Z,2.25
2023-06-27T22:02:16.340Z,2.16
2023-06-27T22:04:43.054Z,2.15
2023-06-27T22:07:09.927Z,2.28
2023-06-27T22:09:36.566Z,2.35
2023-06-27T22:12:03.157Z,2.21
2023-06-27T22:14:29.780Z,2.28
2023-06-27T22:16:56.393Z,2.31
2023-06-27T22:19:22.975Z,2.36
2023-06-27T22:21:49.561Z,2.32
2023-06-27T22:24:16.167Z,2.49
2023-06-27T22:26:42.788Z,2.45
2023-06-27T22:29:09.378Z,2.26
2023-06-27T22:31:36.004Z,2.17
2023-06-27T22:34:02.622Z,2.19
2023-06-27T22:36:29.210Z,2.31
2023-06-27T22:38:55.848Z,2.43
2023-06-27T22:41:22.457Z,2.26
2023-06-27T22:43:49.044Z,2.25
2023-06-27T22:46:15.692Z,2.41
2023-06-27T22:48:42.285Z,2.18
2023-06-27T22:51:08.880Z,2.15
2023-06-27T22:53:35.472Z,2.31
2023-06-27T22:56:02.056Z,2.16
2023-06-27T22:58:28.662Z,2.26
2023-06-27T23:00:55.291Z,2.33
2023-06-27T23:03:21.896Z,2.13
2023-06-27T23:05:48.501Z,2.42
2023-06-27T23:08:15.099Z,2.35
2023-06-27T23:10:41.900Z,2.33
2023-06-27T23:13:08.717Z,2.30
2023-06-27T23:15:35.313Z,2.11
2023-06-27T23:18:01.986Z,2.41
2023-06-27T23:20:28.678Z,2.19
2023-06-27T23:22:55.348Z,2.26
2023-06-27T23:25:21.928Z,2.46
2023-06-27T23:27:48.590Z,2.22
2023-06-27T23:30:15.240Z,2.23
2023-06-27T23:32:41.885Z,2.29
2023-06-27T23:35:08.510Z,2.12
2023-06-27T23:37:35.091Z,2.13
2023-06-27T23:40:01.683Z,2.21
2023-06-27T23:42:28.290Z,2.49
2023-06-27T23:44:54.886Z,2.22
2023-06-27T23:47:21.519Z,2.28
2023-06-27T23:49:48.142Z,2.31
2023-06-27T23:52:14.728Z,2.22
2023-06-27T23:54:41.316Z,2.26
2023-06-27T23:57:07.917Z,2.15
2023-06-27T23:59:34.530Z,2.15
